sensor_id;sensor_type;location;lat;lon;timestamp;P1;durP1;ratioP1;P2;durP2;ratioP2
59093;SDS011;44880;52.814;18.270;2023-05-15T00:02:23;15.00;;;9.50;;
59093;SDS011;44880;52.814;18.270;2023-05-15T00:04:55;13.90;;;9.10;;
59093;SDS011;44880;52.814;18.270;2023-05-15T00:07:26;14.70;;;9.60;;
59093;SDS011;44880;52.814;18.270;2023-05-15T00:09:58;14.40;;;9.40;;
59093;SDS011;44880;52.814;18.270;2023-05-15T00:15:00;13.20;;;9.40;;
59093;SDS011;44880;52.814;18.270;2023-05-15T00:17:32;14.40;;;9.20;;
59093;SDS011;44880;52.814;18.270;2023-05-15T00:20:04;14.00;;;9.40;;
59093;SDS011;44880;52.814;18.270;2023-05-15T00:22:37;12.80;;;9.00;;
59093;SDS011;44880;52.814;18.270;2023-05-15T00:25:09;15.80;;;9.20;;
59093;SDS011;44880;52.814;18.270;2023-05-15T00:27:41;14.50;;;8.50;;
59093;SDS011;44880;52.814;18.270;2023-05-15T00:30:14;11.70;;;7.60;;
59093;SDS011;44880;52.814;18.270;2023-05-15T00:32:45;12.40;;;7.50;;
59093;SDS011;44880;52.814;18.270;2023-05-15T00:35:19;13.30;;;8.70;;
59093;SDS011;44880;52.814;18.270;2023-05-15T00:37:52;13.30;;;8.10;;
59093;SDS011;44880;52.814;18.270;2023-05-15T00:40:24;12.00;;;7.90;;
59093;SDS011;44880;52.814;18.270;2023-05-15T00:45:25;13.00;;;8.80;;
59093;SDS011;44880;52.814;18.270;2023-05-15T00:47:59;13.00;;;8.20;;
59093;SDS011;44880;52.814;18.270;2023-05-15T00:53:01;12.90;;;7.20;;
59093;SDS011;44880;52.814;18.270;2023-05-15T00:55:33;12.10;;;7.30;;
59093;SDS011;44880;52.814;18.270;2023-05-15T01:00:35;14.80;;;8.00;;
59093;SDS011;44880;52.814;18.270;2023-05-15T01:03:08;13.70;;;7.90;;
59093;SDS011;44880;52.814;18.270;2023-05-15T01:05:39;13.90;;;8.20;;
59093;SDS011;44880;52.814;18.270;2023-05-15T01:08:12;11.70;;;7.50;;
59093;SDS011;44880;52.814;18.270;2023-05-15T01:10:48;13.10;;;7.50;;
59093;SDS011;44880;52.814;18.270;2023-05-15T01:13:20;13.20;;;8.10;;
59093;SDS011;44880;52.814;18.270;2023-05-15T01:15:53;16.80;;;9.00;;
59093;SDS011;44880;52.814;18.270;2023-05-15T01:18:25;12.60;;;8.10;;
59093;SDS011;44880;52.814;18.270;2023-05-15T01:21:15;12.40;;;8.10;;
59093;SDS011;44880;52.814;18.270;2023-05-15T01:24:01;12.60;;;8.50;;
59093;SDS011;44880;52.814;18.270;2023-05-15T01:26:50;12.30;;;8.50;;
59093;SDS011;44880;52.814;18.270;2023-05-15T01:29:48;13.40;;;8.70;;
59093;SDS011;44880;52.814;18.270;2023-05-15T01:32:26;13.20;;;8.10;;
59093;SDS011;44880;52.814;18.270;2023-05-15T01:35:03;13.00;;;8.50;;
59093;SDS011;44880;52.814;18.270;2023-05-15T01:37:41;13.50;;;9.00;;
59093;SDS011;44880;52.814;18.270;2023-05-15T01:40:17;13.10;;;9.20;;
59093;SDS011;44880;52.814;18.270;2023-05-15T01:42:52;15.50;;;8.90;;
59093;SDS011;44880;52.814;18.270;2023-05-15T01:45:24;12.50;;;8.00;;
59093;SDS011;44880;52.814;18.270;2023-05-15T01:47:57;12.60;;;7.60;;
59093;SDS011;44880;52.814;18.270;2023-05-15T01:50:29;13.60;;;7.60;;
59093;SDS011;44880;52.814;18.270;2023-05-15T01:53:02;13.70;;;7.80;;
59093;SDS011;44880;52.814;18.270;2023-05-15T01:55:36;12.30;;;8.10;;
59093;SDS011;44880;52.814;18.270;2023-05-15T01:58:09;15.90;;;8.20;;
59093;SDS011;44880;52.814;18.270;2023-05-15T02:00:40;13.50;;;8.50;;
59093;SDS011;44880;52.814;18.270;2023-05-15T02:05:42;14.20;;;8.60;;
59093;SDS011;44880;52.814;18.270;2023-05-15T02:08:16;13.70;;;8.00;;
59093;SDS011;44880;52.814;18.270;2023-05-15T02:10:48;13.20;;;8.70;;
59093;SDS011;44880;52.814;18.270;2023-05-15T02:13:21;12.10;;;8.30;;
59093;SDS011;44880;52.814;18.270;2023-05-15T02:15:53;14.70;;;8.90;;
59093;SDS011;44880;52.814;18.270;2023-05-15T02:18:24;13.60;;;8.90;;
59093;SDS011;44880;52.814;18.270;2023-05-15T02:20:59;15.90;;;9.30;;
59093;SDS011;44880;52.814;18.270;2023-05-15T02:23:31;14.70;;;10.20;;
59093;SDS011;44880;52.814;18.270;2023-05-15T02:26:07;13.40;;;9.50;;
59093;SDS011;44880;52.814;18.270;2023-05-15T02:28:44;14.00;;;8.00;;
59093;SDS011;44880;52.814;18.270;2023-05-15T02:31:21;13.80;;;8.30;;
59093;SDS011;44880;52.814;18.270;2023-05-15T02:33:57;11.90;;;7.20;;
59093;SDS011;44880;52.814;18.270;2023-05-15T02:36:31;13.20;;;7.90;;
59093;SDS011;44880;52.814;18.270;2023-05-15T02:39:04;12.10;;;8.00;;
59093;SDS011;44880;52.814;18.270;2023-05-15T02:41:35;13.50;;;7.80;;
59093;SDS011;44880;52.814;18.270;2023-05-15T02:44:08;13.50;;;7.80;;
59093;SDS011;44880;52.814;18.270;2023-05-15T02:46:40;11.10;;;7.70;;
59093;SDS011;44880;52.814;18.270;2023-05-15T02:49:12;11.60;;;7.60;;
59093;SDS011;44880;52.814;18.270;2023-05-15T02:54:14;10.80;;;7.20;;
59093;SDS011;44880;52.814;18.270;2023-05-15T02:56:45;12.80;;;7.30;;
59093;SDS011;44880;52.814;18.270;2023-05-15T02:59:17;11.10;;;7.50;;
59093;SDS011;44880;52.814;18.270;2023-05-15T03:01:48;12.60;;;8.20;;
59093;SDS011;44880;52.814;18.270;2023-05-15T03:04:20;12.10;;;8.00;;
59093;SDS011;44880;52.814;18.270;2023-05-15T03:06:52;12.90;;;8.00;;
59093;SDS011;44880;52.814;18.270;2023-05-15T03:09:23;12.80;;;7.80;;
59093;SDS011;44880;52.814;18.270;2023-05-15T03:11:55;13.90;;;7.80;;
59093;SDS011;44880;52.814;18.270;2023-05-15T03:14:27;12.60;;;7.90;;
59093;SDS011;44880;52.814;18.270;2023-05-15T03:16:58;11.70;;;7.50;;
59093;SDS011;44880;52.814;18.270;2023-05-15T03:19:30;11.90;;;7.30;;
59093;SDS011;44880;52.814;18.270;2023-05-15T03:22:02;12.40;;;7.30;;
59093;SDS011;44880;52.814;18.270;2023-05-15T03:24:34;12.10;;;7.40;;
59093;SDS011;44880;52.814;18.270;2023-05-15T03:27:06;12.80;;;7.70;;
59093;SDS011;44880;52.814;18.270;2023-05-15T03:29:37;11.80;;;7.50;;
59093;SDS011;44880;52.814;18.270;2023-05-15T03:32:11;12.20;;;7.70;;
59093;SDS011;44880;52.814;18.270;2023-05-15T03:34:42;12.50;;;8.00;;
59093;SDS011;44880;52.814;18.270;2023-05-15T03:37:14;13.30;;;7.40;;
59093;SDS011;44880;52.814;18.270;2023-05-15T03:39:46;11.60;;;7.80;;
59093;SDS011;44880;52.814;18.270;2023-05-15T03:42:17;12.70;;;7.60;;
59093;SDS011;44880;52.814;18.270;2023-05-15T03:44:50;12.30;;;7.50;;
59093;SDS011;44880;52.814;18.270;2023-05-15T03:47:23;11.90;;;7.10;;
59093;SDS011;44880;52.814;18.270;2023-05-15T03:49:55;10.90;;;6.90;;
59093;SDS011;44880;52.814;18.270;2023-05-15T03:52:26;12.60;;;7.40;;
59093;SDS011;44880;52.814;18.270;2023-05-15T03:54:58;11.40;;;7.20;;
59093;SDS011;44880;52.814;18.270;2023-05-15T03:57:29;12.60;;;7.80;;
59093;SDS011;44880;52.814;18.270;2023-05-15T04:00:03;11.40;;;7.60;;
59093;SDS011;44880;52.814;18.270;2023-05-15T04:02:40;11.20;;;7.40;;
59093;SDS011;44880;52.814;18.270;2023-05-15T04:05:12;14.10;;;8.10;;
59093;SDS011;44880;52.814;18.270;2023-05-15T04:10:14;13.20;;;8.10;;
59093;SDS011;44880;52.814;18.270;2023-05-15T04:12:46;13.10;;;7.80;;
59093;SDS011;44880;52.814;18.270;2023-05-15T04:15:20;12.80;;;8.00;;
59093;SDS011;44880;52.814;18.270;2023-05-15T04:17:53;13.00;;;8.30;;
59093;SDS011;44880;52.814;18.270;2023-05-15T04:20:24;13.20;;;8.90;;
59093;SDS011;44880;52.814;18.270;2023-05-15T04:22:56;13.60;;;9.20;;
59093;SDS011;44880;52.814;18.270;2023-05-15T04:25:28;11.40;;;8.30;;
59093;SDS011;44880;52.814;18.270;2023-05-15T04:28:00;14.20;;;8.60;;
59093;SDS011;44880;52.814;18.270;2023-05-15T04:30:31;14.20;;;8.90;;
59093;SDS011;44880;52.814;18.270;2023-05-15T04:33:03;12.20;;;8.40;;
59093;SDS011;44880;52.814;18.270;2023-05-15T04:35:34;13.00;;;8.70;;
59093;SDS011;44880;52.814;18.270;2023-05-15T04:38:06;14.20;;;8.40;;
59093;SDS011;44880;52.814;18.270;2023-05-15T04:40:38;12.60;;;7.90;;
59093;SDS011;44880;52.814;18.270;2023-05-15T04:45:40;13.10;;;8.20;;
59093;SDS011;44880;52.814;18.270;2023-05-15T04:48:11;11.30;;;7.40;;
59093;SDS011;44880;52.814;18.270;2023-05-15T04:50:43;12.90;;;8.10;;
59093;SDS011;44880;52.814;18.270;2023-05-15T04:53:15;13.10;;;8.90;;
59093;SDS011;44880;52.814;18.270;2023-05-15T04:58:35;14.80;;;8.50;;
59093;SDS011;44880;52.814;18.270;2023-05-15T05:01:07;14.30;;;9.00;;
59093;SDS011;44880;52.814;18.270;2023-05-15T05:06:30;14.00;;;9.50;;
59093;SDS011;44880;52.814;18.270;2023-05-15T05:09:03;13.10;;;8.90;;
59093;SDS011;44880;52.814;18.270;2023-05-15T05:11:39;13.80;;;9.30;;
59093;SDS011;44880;52.814;18.270;2023-05-15T05:14:18;13.60;;;8.80;;
59093;SDS011;44880;52.814;18.270;2023-05-15T05:16:51;12.10;;;9.00;;
59093;SDS011;44880;52.814;18.270;2023-05-15T05:19:23;14.60;;;9.60;;
59093;SDS011;44880;52.814;18.270;2023-05-15T05:22:11;13.20;;;8.70;;
59093;SDS011;44880;52.814;18.270;2023-05-15T05:24:43;13.50;;;9.00;;
59093;SDS011;44880;52.814;18.270;2023-05-15T05:27:15;12.20;;;8.60;;
59093;SDS011;44880;52.814;18.270;2023-05-15T05:30:08;13.40;;;8.40;;
59093;SDS011;44880;52.814;18.270;2023-05-15T05:32:41;11.90;;;8.30;;
59093;SDS011;44880;52.814;18.270;2023-05-15T05:35:30;13.70;;;9.30;;
59093;SDS011;44880;52.814;18.270;2023-05-15T05:38:02;15.50;;;9.40;;
59093;SDS011;44880;52.814;18.270;2023-05-15T05:40:34;14.90;;;10.20;;
59093;SDS011;44880;52.814;18.270;2023-05-15T05:46:17;16.10;;;10.50;;
59093;SDS011;44880;52.814;18.270;2023-05-15T05:51:40;16.60;;;10.30;;
59093;SDS011;44880;52.814;18.270;2023-05-15T05:54:13;13.80;;;10.40;;
59093;SDS011;44880;52.814;18.270;2023-05-15T05:59:25;14.30;;;10.80;;
59093;SDS011;44880;52.814;18.270;2023-05-15T06:02:00;16.30;;;11.40;;
59093;SDS011;44880;52.814;18.270;2023-05-15T06:07:28;14.40;;;9.80;;
59093;SDS011;44880;52.814;18.270;2023-05-15T06:15:34;13.10;;;10.00;;
59093;SDS011;44880;52.814;18.270;2023-05-15T06:20:51;14.90;;;11.00;;
59093;SDS011;44880;52.814;18.270;2023-05-15T06:23:32;15.30;;;10.70;;
59093;SDS011;44880;52.814;18.270;2023-05-15T06:26:18;16.10;;;10.80;;
59093;SDS011;44880;52.814;18.270;2023-05-15T06:28:53;14.50;;;10.50;;
59093;SDS011;44880;52.814;18.270;2023-05-15T06:31:25;15.40;;;10.20;;
59093;SDS011;44880;52.814;18.270;2023-05-15T06:36:58;14.70;;;9.50;;
59093;SDS011;44880;52.814;18.270;2023-05-15T06:39:43;14.30;;;9.50;;
59093;SDS011;44880;52.814;18.270;2023-05-15T06:42:15;12.70;;;8.80;;
59093;SDS011;44880;52.814;18.270;2023-05-15T06:44:54;12.50;;;8.50;;
59093;SDS011;44880;52.814;18.270;2023-05-15T06:47:36;12.90;;;9.10;;
59093;SDS011;44880;52.814;18.270;2023-05-15T06:50:08;13.40;;;9.30;;
59093;SDS011;44880;52.814;18.270;2023-05-15T06:52:43;15.80;;;9.70;;
59093;SDS011;44880;52.814;18.270;2023-05-15T06:58:11;12.80;;;9.30;;
59093;SDS011;44880;52.814;18.270;2023-05-15T07:00:45;12.70;;;8.30;;
59093;SDS011;44880;52.814;18.270;2023-05-15T07:03:36;12.60;;;8.90;;
59093;SDS011;44880;52.814;18.270;2023-05-15T07:06:15;12.80;;;8.70;;
59093;SDS011;44880;52.814;18.270;2023-05-15T07:11:42;12.30;;;8.00;;
59093;SDS011;44880;52.814;18.270;2023-05-15T07:14:14;11.30;;;8.00;;
59093;SDS011;44880;52.814;18.270;2023-05-15T07:17:07;12.50;;;8.70;;
59093;SDS011;44880;52.814;18.270;2023-05-15T07:19:39;12.60;;;8.70;;
59093;SDS011;44880;52.814;18.270;2023-05-15T07:22:16;13.70;;;9.70;;
59093;SDS011;44880;52.814;18.270;2023-05-15T07:27:39;11.70;;;8.30;;
59093;SDS011;44880;52.814;18.270;2023-05-15T07:33:06;9.70;;;6.20;;
59093;SDS011;44880;52.814;18.270;2023-05-15T07:38:20;12.20;;;7.60;;
59093;SDS011;44880;52.814;18.270;2023-05-15T07:40:58;12.70;;;7.20;;
59093;SDS011;44880;52.814;18.270;2023-05-15T07:43:30;10.70;;;7.30;;
59093;SDS011;44880;52.814;18.270;2023-05-15T07:48:55;11.50;;;7.20;;
59093;SDS011;44880;52.814;18.270;2023-05-15T07:51:28;11.00;;;6.80;;
59093;SDS011;44880;52.814;18.270;2023-05-15T07:54:16;9.30;;;5.60;;
59093;SDS011;44880;52.814;18.270;2023-05-15T07:56:49;11.30;;;5.10;;
59093;SDS011;44880;52.814;18.270;2023-05-15T07:59:21;9.40;;;5.70;;
59093;SDS011;44880;52.814;18.270;2023-05-15T08:02:10;9.70;;;5.40;;
59093;SDS011;44880;52.814;18.270;2023-05-15T08:04:42;10.30;;;5.60;;
59093;SDS011;44880;52.814;18.270;2023-05-15T08:07:14;9.00;;;5.50;;
59093;SDS011;44880;52.814;18.270;2023-05-15T08:10:06;8.90;;;5.40;;
59093;SDS011;44880;52.814;18.270;2023-05-15T08:12:45;8.50;;;4.60;;
59093;SDS011;44880;52.814;18.270;2023-05-15T08:15:29;8.30;;;4.80;;
59093;SDS011;44880;52.814;18.270;2023-05-15T08:18:01;8.90;;;4.80;;
59093;SDS011;44880;52.814;18.270;2023-05-15T08:20:40;10.90;;;5.10;;
59093;SDS011;44880;52.814;18.270;2023-05-15T08:23:21;8.40;;;4.50;;
59093;SDS011;44880;52.814;18.270;2023-05-15T08:25:53;10.40;;;5.30;;
59093;SDS011;44880;52.814;18.270;2023-05-15T08:28:34;9.60;;;5.30;;
59093;SDS011;44880;52.814;18.270;2023-05-15T08:31:15;10.10;;;4.80;;
59093;SDS011;44880;52.814;18.270;2023-05-15T08:33:46;9.20;;;4.80;;
59093;SDS011;44880;52.814;18.270;2023-05-15T08:36:24;9.70;;;5.70;;
59093;SDS011;44880;52.814;18.270;2023-05-15T08:45:20;11.10;;;5.80;;
59093;SDS011;44880;52.814;18.270;2023-05-15T08:51:05;10.10;;;5.90;;
59093;SDS011;44880;52.814;18.270;2023-05-15T08:56:48;10.10;;;6.40;;
59093;SDS011;44880;52.814;18.270;2023-05-15T08:59:58;10.80;;;7.30;;
59093;SDS011;44880;52.814;18.270;2023-05-15T09:02:38;11.30;;;7.20;;
59093;SDS011;44880;52.814;18.270;2023-05-15T09:07:59;11.30;;;7.50;;
59093;SDS011;44880;52.814;18.270;2023-05-15T09:11:03;14.40;;;7.30;;
59093;SDS011;44880;52.814;18.270;2023-05-15T09:13:36;9.80;;;6.80;;
59093;SDS011;44880;52.814;18.270;2023-05-15T09:16:19;10.20;;;7.20;;
59093;SDS011;44880;52.814;18.270;2023-05-15T09:22:37;10.10;;;7.20;;
59093;SDS011;44880;52.814;18.270;2023-05-15T09:34:59;11.80;;;8.00;;
59093;SDS011;44880;52.814;18.270;2023-05-15T09:37:42;12.90;;;7.90;;
59093;SDS011;44880;52.814;18.270;2023-05-15T09:40:31;11.50;;;7.40;;
59093;SDS011;44880;52.814;18.270;2023-05-15T09:43:21;11.20;;;7.90;;
59093;SDS011;44880;52.814;18.270;2023-05-15T09:49:44;12.20;;;8.30;;
59093;SDS011;44880;52.814;18.270;2023-05-15T09:52:59;12.60;;;9.00;;
59093;SDS011;44880;52.814;18.270;2023-05-15T10:02:11;12.60;;;9.70;;
59093;SDS011;44880;52.814;18.270;2023-05-15T10:05:27;13.40;;;9.40;;
59093;SDS011;44880;52.814;18.270;2023-05-15T10:14:16;12.50;;;8.60;;
59093;SDS011;44880;52.814;18.270;2023-05-15T10:19:34;13.90;;;9.80;;
59093;SDS011;44880;52.814;18.270;2023-05-15T10:22:06;14.20;;;10.70;;
59093;SDS011;44880;52.814;18.270;2023-05-15T10:24:39;13.90;;;10.30;;
59093;SDS011;44880;52.814;18.270;2023-05-15T10:27:26;13.30;;;9.60;;
59093;SDS011;44880;52.814;18.270;2023-05-15T10:30:08;13.90;;;9.90;;
59093;SDS011;44880;52.814;18.270;2023-05-15T10:35:38;14.10;;;11.50;;
59093;SDS011;44880;52.814;18.270;2023-05-15T10:38:10;14.40;;;10.70;;
59093;SDS011;44880;52.814;18.270;2023-05-15T10:41:08;13.50;;;10.60;;
59093;SDS011;44880;52.814;18.270;2023-05-15T10:43:41;13.60;;;10.80;;
59093;SDS011;44880;52.814;18.270;2023-05-15T10:46:16;15.90;;;11.40;;
59093;SDS011;44880;52.814;18.270;2023-05-15T10:49:01;15.20;;;12.10;;
59093;SDS011;44880;52.814;18.270;2023-05-15T10:51:33;17.80;;;12.60;;
59093;SDS011;44880;52.814;18.270;2023-05-15T10:54:09;15.10;;;13.30;;
59093;SDS011;44880;52.814;18.270;2023-05-15T10:56:44;15.20;;;12.70;;
59093;SDS011;44880;52.814;18.270;2023-05-15T10:59:29;16.80;;;13.00;;
59093;SDS011;44880;52.814;18.270;2023-05-15T11:02:23;15.10;;;12.70;;
59093;SDS011;44880;52.814;18.270;2023-05-15T11:05:05;16.10;;;12.80;;
59093;SDS011;44880;52.814;18.270;2023-05-15T11:07:39;15.10;;;11.10;;
59093;SDS011;44880;52.814;18.270;2023-05-15T11:13:17;13.00;;;10.50;;
59093;SDS011;44880;52.814;18.270;2023-05-15T11:15:49;13.70;;;10.90;;
59093;SDS011;44880;52.814;18.270;2023-05-15T11:18:22;14.00;;;10.90;;
59093;SDS011;44880;52.814;18.270;2023-05-15T11:24:06;11.20;;;8.50;;
59093;SDS011;44880;52.814;18.270;2023-05-15T11:26:45;11.30;;;9.00;;
59093;SDS011;44880;52.814;18.270;2023-05-15T11:29:24;12.60;;;9.20;;
59093;SDS011;44880;52.814;18.270;2023-05-15T11:31:57;11.60;;;8.40;;
59093;SDS011;44880;52.814;18.270;2023-05-15T11:34:40;11.00;;;8.50;;
59093;SDS011;44880;52.814;18.270;2023-05-15T11:37:17;10.20;;;7.70;;
59093;SDS011;44880;52.814;18.270;2023-05-15T11:39:53;10.40;;;8.10;;
59093;SDS011;44880;52.814;18.270;2023-05-15T11:45:10;10.10;;;7.50;;
59093;SDS011;44880;52.814;18.270;2023-05-15T11:47:51;10.70;;;6.90;;
59093;SDS011;44880;52.814;18.270;2023-05-15T11:50:26;10.50;;;7.00;;
59093;SDS011;44880;52.814;18.270;2023-05-15T11:52:59;10.00;;;7.10;;
59093;SDS011;44880;52.814;18.270;2023-05-15T11:55:33;10.20;;;7.10;;
59093;SDS011;44880;52.814;18.270;2023-05-15T11:58:19;9.90;;;6.90;;
59093;SDS011;44880;52.814;18.270;2023-05-15T12:00:52;10.30;;;6.80;;
59093;SDS011;44880;52.814;18.270;2023-05-15T12:03:24;9.50;;;6.70;;
59093;SDS011;44880;52.814;18.270;2023-05-15T12:06:01;9.40;;;6.60;;
59093;SDS011;44880;52.814;18.270;2023-05-15T12:08:55;10.70;;;6.80;;
59093;SDS011;44880;52.814;18.270;2023-05-15T12:11:30;10.40;;;7.10;;
59093;SDS011;44880;52.814;18.270;2023-05-15T12:14:02;10.30;;;7.20;;
59093;SDS011;44880;52.814;18.270;2023-05-15T12:16:37;10.20;;;6.90;;
59093;SDS011;44880;52.814;18.270;2023-05-15T12:19:12;11.20;;;7.00;;
59093;SDS011;44880;52.814;18.270;2023-05-15T12:21:46;9.30;;;5.90;;
59093;SDS011;44880;52.814;18.270;2023-05-15T12:24:20;10.00;;;6.20;;
59093;SDS011;44880;52.814;18.270;2023-05-15T12:26:53;10.20;;;6.40;;
59093;SDS011;44880;52.814;18.270;2023-05-15T12:29:26;9.30;;;6.10;;
59093;SDS011;44880;52.814;18.270;2023-05-15T12:32:04;10.90;;;6.90;;
59093;SDS011;44880;52.814;18.270;2023-05-15T12:34:36;10.70;;;6.90;;
59093;SDS011;44880;52.814;18.270;2023-05-15T12:37:11;9.90;;;7.30;;
59093;SDS011;44880;52.814;18.270;2023-05-15T12:42:43;9.40;;;6.70;;
59093;SDS011;44880;52.814;18.270;2023-05-15T12:45:21;10.20;;;6.90;;
59093;SDS011;44880;52.814;18.270;2023-05-15T12:47:53;9.50;;;6.10;;
59093;SDS011;44880;52.814;18.270;2023-05-15T12:50:30;10.70;;;6.10;;
59093;SDS011;44880;52.814;18.270;2023-05-15T12:53:06;9.40;;;5.60;;
59093;SDS011;44880;52.814;18.270;2023-05-15T12:55:45;9.20;;;5.60;;
59093;SDS011;44880;52.814;18.270;2023-05-15T12:58:17;8.80;;;5.20;;
59093;SDS011;44880;52.814;18.270;2023-05-15T13:00:51;9.10;;;5.60;;
59093;SDS011;44880;52.814;18.270;2023-05-15T13:03:24;9.20;;;6.00;;
59093;SDS011;44880;52.814;18.270;2023-05-15T13:05:55;10.50;;;6.30;;
59093;SDS011;44880;52.814;18.270;2023-05-15T13:08:30;9.60;;;5.70;;
59093;SDS011;44880;52.814;18.270;2023-05-15T13:11:13;9.80;;;6.30;;
59093;SDS011;44880;52.814;18.270;2023-05-15T13:16:20;9.10;;;5.60;;
59093;SDS011;44880;52.814;18.270;2023-05-15T13:18:57;8.30;;;4.90;;
59093;SDS011;44880;52.814;18.270;2023-05-15T13:21:29;8.10;;;4.50;;
59093;SDS011;44880;52.814;18.270;2023-05-15T13:24:14;9.10;;;5.20;;
59093;SDS011;44880;52.814;18.270;2023-05-15T13:26:50;8.80;;;5.30;;
59093;SDS011;44880;52.814;18.270;2023-05-15T13:29:22;8.10;;;4.60;;
59093;SDS011;44880;52.814;18.270;2023-05-15T13:32:07;9.20;;;5.50;;
59093;SDS011;44880;52.814;18.270;2023-05-15T13:34:41;8.70;;;5.70;;
59093;SDS011;44880;52.814;18.270;2023-05-15T13:37:14;9.10;;;5.90;;
59093;SDS011;44880;52.814;18.270;2023-05-15T13:42:52;8.30;;;5.20;;
59093;SDS011;44880;52.814;18.270;2023-05-15T13:45:40;8.30;;;4.80;;
59093;SDS011;44880;52.814;18.270;2023-05-15T13:48:12;8.40;;;4.60;;
59093;SDS011;44880;52.814;18.270;2023-05-15T13:50:44;9.10;;;4.70;;
59093;SDS011;44880;52.814;18.270;2023-05-15T13:53:25;8.60;;;5.10;;
59093;SDS011;44880;52.814;18.270;2023-05-15T13:55:58;9.30;;;5.40;;
59093;SDS011;44880;52.814;18.270;2023-05-15T13:58:33;8.60;;;5.30;;
59093;SDS011;44880;52.814;18.270;2023-05-15T14:01:09;8.90;;;5.60;;
59093;SDS011;44880;52.814;18.270;2023-05-15T14:03:41;11.10;;;6.90;;
59093;SDS011;44880;52.814;18.270;2023-05-15T14:06:15;10.50;;;6.90;;
59093;SDS011;44880;52.814;18.270;2023-05-15T14:08:47;10.70;;;7.20;;
59093;SDS011;44880;52.814;18.270;2023-05-15T14:11:32;9.40;;;6.10;;
59093;SDS011;44880;52.814;18.270;2023-05-15T14:14:05;9.00;;;5.20;;
59093;SDS011;44880;52.814;18.270;2023-05-15T14:16:37;12.20;;;5.60;;
59093;SDS011;44880;52.814;18.270;2023-05-15T14:21:39;8.60;;;5.10;;
59093;SDS011;44880;52.814;18.270;2023-05-15T14:24:14;8.90;;;5.70;;
59093;SDS011;44880;52.814;18.270;2023-05-15T14:26:46;9.60;;;6.10;;
59093;SDS011;44880;52.814;18.270;2023-05-15T14:29:17;9.00;;;5.50;;
59093;SDS011;44880;52.814;18.270;2023-05-15T14:31:49;9.70;;;6.70;;
59093;SDS011;44880;52.814;18.270;2023-05-15T14:34:22;10.00;;;6.10;;
59093;SDS011;44880;52.814;18.270;2023-05-15T14:36:53;9.80;;;6.40;;
59093;SDS011;44880;52.814;18.270;2023-05-15T14:39:25;10.80;;;6.80;;
59093;SDS011;44880;52.814;18.270;2023-05-15T14:41:57;9.20;;;6.00;;
59093;SDS011;44880;52.814;18.270;2023-05-15T14:44:33;10.20;;;5.90;;
59093;SDS011;44880;52.814;18.270;2023-05-15T14:49:41;10.10;;;5.80;;
59093;SDS011;44880;52.814;18.270;2023-05-15T14:52:16;9.10;;;5.30;;
59093;SDS011;44880;52.814;18.270;2023-05-15T14:54:53;9.00;;;5.40;;
59093;SDS011;44880;52.814;18.270;2023-05-15T14:57:26;9.70;;;6.10;;
59093;SDS011;44880;52.814;18.270;2023-05-15T15:02:37;9.30;;;6.20;;
59093;SDS011;44880;52.814;18.270;2023-05-15T15:05:09;10.80;;;6.80;;
59093;SDS011;44880;52.814;18.270;2023-05-15T15:08:00;10.50;;;6.60;;
59093;SDS011;44880;52.814;18.270;2023-05-15T15:10:34;10.40;;;6.50;;
59093;SDS011;44880;52.814;18.270;2023-05-15T15:13:10;9.60;;;5.90;;
59093;SDS011;44880;52.814;18.270;2023-05-15T15:15:46;10.10;;;6.40;;
59093;SDS011;44880;52.814;18.270;2023-05-15T15:18:22;9.90;;;5.80;;
59093;SDS011;44880;52.814;18.270;2023-05-15T15:20:54;9.60;;;5.80;;
59093;SDS011;44880;52.814;18.270;2023-05-15T15:23:52;10.90;;;6.60;;
59093;SDS011;44880;52.814;18.270;2023-05-15T15:26:25;9.70;;;6.20;;
59093;SDS011;44880;52.814;18.270;2023-05-15T15:28:57;10.80;;;7.00;;
59093;SDS011;44880;52.814;18.270;2023-05-15T15:31:35;10.40;;;6.90;;
59093;SDS011;44880;52.814;18.270;2023-05-15T15:34:08;10.10;;;6.90;;
59093;SDS011;44880;52.814;18.270;2023-05-15T15:36:39;10.40;;;6.50;;
59093;SDS011;44880;52.814;18.270;2023-05-15T15:39:24;9.10;;;5.70;;
59093;SDS011;44880;52.814;18.270;2023-05-15T15:42:01;10.80;;;6.40;;
59093;SDS011;44880;52.814;18.270;2023-05-15T15:44:34;10.00;;;6.20;;
59093;SDS011;44880;52.814;18.270;2023-05-15T15:47:10;9.50;;;6.20;;
59093;SDS011;44880;52.814;18.270;2023-05-15T15:49:56;9.80;;;6.20;;
59093;SDS011;44880;52.814;18.270;2023-05-15T15:52:28;10.30;;;6.40;;
59093;SDS011;44880;52.814;18.270;2023-05-15T15:58:03;10.10;;;7.10;;
59093;SDS011;44880;52.814;18.270;2023-05-15T16:00:52;10.20;;;7.20;;
59093;SDS011;44880;52.814;18.270;2023-05-15T16:03:36;10.90;;;7.40;;
59093;SDS011;44880;52.814;18.270;2023-05-15T16:06:08;10.60;;;7.50;;
59093;SDS011;44880;52.814;18.270;2023-05-15T16:08:42;10.40;;;6.70;;
59093;SDS011;44880;52.814;18.270;2023-05-15T16:11:28;10.40;;;6.80;;
59093;SDS011;44880;52.814;18.270;2023-05-15T16:16:34;9.60;;;6.70;;
59093;SDS011;44880;52.814;18.270;2023-05-15T16:19:11;9.80;;;6.50;;
59093;SDS011;44880;52.814;18.270;2023-05-15T16:24:20;10.40;;;6.80;;
59093;SDS011;44880;52.814;18.270;2023-05-15T16:27:30;10.80;;;6.70;;
59093;SDS011;44880;52.814;18.270;2023-05-15T16:30:08;10.80;;;7.80;;
59093;SDS011;44880;52.814;18.270;2023-05-15T16:32:44;10.90;;;7.80;;
59093;SDS011;44880;52.814;18.270;2023-05-15T16:35:16;12.30;;;7.80;;
59093;SDS011;44880;52.814;18.270;2023-05-15T16:37:57;12.80;;;8.30;;
59093;SDS011;44880;52.814;18.270;2023-05-15T16:40:29;12.00;;;8.10;;
59093;SDS011;44880;52.814;18.270;2023-05-15T16:43:04;12.10;;;7.90;;
59093;SDS011;44880;52.814;18.270;2023-05-15T16:45:36;12.60;;;7.90;;
59093;SDS011;44880;52.814;18.270;2023-05-15T16:48:09;11.60;;;7.90;;
59093;SDS011;44880;52.814;18.270;2023-05-15T16:50:53;11.40;;;8.60;;
59093;SDS011;44880;52.814;18.270;2023-05-15T16:53:25;13.80;;;9.70;;
59093;SDS011;44880;52.814;18.270;2023-05-15T16:56:00;13.00;;;10.20;;
59093;SDS011;44880;52.814;18.270;2023-05-15T16:58:33;14.20;;;10.60;;
59093;SDS011;44880;52.814;18.270;2023-05-15T17:01:04;17.60;;;11.20;;
59093;SDS011;44880;52.814;18.270;2023-05-15T17:03:37;15.00;;;12.20;;
59093;SDS011;44880;52.814;18.270;2023-05-15T17:06:17;15.40;;;11.80;;
59093;SDS011;44880;52.814;18.270;2023-05-15T17:08:55;17.40;;;12.70;;
59093;SDS011;44880;52.814;18.270;2023-05-15T17:11:29;18.80;;;13.30;;
59093;SDS011;44880;52.814;18.270;2023-05-15T17:14:04;17.00;;;12.70;;
59093;SDS011;44880;52.814;18.270;2023-05-15T17:16:49;16.60;;;12.20;;
59093;SDS011;44880;52.814;18.270;2023-05-15T17:19:29;16.20;;;11.90;;
59093;SDS011;44880;52.814;18.270;2023-05-15T17:22:15;15.90;;;12.70;;
59093;SDS011;44880;52.814;18.270;2023-05-15T17:24:51;18.30;;;13.90;;
59093;SDS011;44880;52.814;18.270;2023-05-15T17:27:43;16.60;;;12.90;;
59093;SDS011;44880;52.814;18.270;2023-05-15T17:30:25;17.60;;;13.80;;
59093;SDS011;44880;52.814;18.270;2023-05-15T17:33:14;17.90;;;13.60;;
59093;SDS011;44880;52.814;18.270;2023-05-15T17:35:58;18.70;;;14.10;;
59093;SDS011;44880;52.814;18.270;2023-05-15T17:38:33;17.40;;;12.20;;
59093;SDS011;44880;52.814;18.270;2023-05-15T17:41:14;18.50;;;13.20;;
59093;SDS011;44880;52.814;18.270;2023-05-15T17:43:48;16.60;;;12.60;;